Skip Navigation Links
NOAA logo - Click to go to the NOAA homepage
NOAA's National Weather Service
Alaska Aviation Weather Unit
  NWS logo - Click to go to the NWS homepage
Left Navbar Graphic     23 AKDT = 07 GMT

   
NOAA is celebrating 200 years of science, service, and stewardship. Visit the NOAA 200th celebration Web site to learn more.
USA.gov is the U.S. Government's official Web portal to all Federal, state and local government Web resources and services.
Facebook
NWS on Facebook

AAWU Home :: Display TAF Add Bookmark
METAR PAVL 240153Z AUTO 36018KT 10SM CLR 00/M06 A2983 RMK AO2 SLP103
     T00001056 TSNO=

METAR PAVL 240253Z AUTO 02013KT 10SM CLR 00/M05 A2982 RMK AO2 SLP099
 T00001050 56013 TSNO=

METAR PAVL 240353Z AUTO 01019KT 10SM CLR M01/M06 A2981 RMK AO2 SLP095
     T10061061 TSNO=

METAR PAVL 240453Z AUTO 02014KT 10SM CLR M02/M07 A2980 RMK AO2
 SLP093 T10171067 TSNO=

METAR PAVL 240553Z AUTO 36012KT 10SM CLR M03/M08 A2980 RMK AO2 SLP091
     T10331078 10011 21033 56008 TSNO=

METAR PAVL 240653Z AUTO 02016KT 10SM CLR M04/M09 A2979 RMK AO2 SLP088
     T10391089 TSNO=


NOAA's National Weather Service
Alaska Aviation Weather Unit
6930 Sand Lake Road
Anchorage, AK 99502-1845
Disclaimer
Credits
Glossary
Privacy Policy
About Us
Career Opportunities
Contact AAWU Internet Services Site last modified: April, 17th 2012